Time;durP1;ratioP1;P1;durP2;ratioP2;P2;SDS_P1;SDS_P2;PMS_P1;PMS_P2;Temp;Humidity;BMP_temperature;BMP_pressure;BME280_temperature;BME280_humidity;BME280_pressure;Samples;Min_cycle;Max_cycle;Signal;HPM_P1;HPM_P2
2023/05/09 00:01:34;;;;;;;14.73;8.82;;;;;;;;;;5092895;28;20074;-60
2023/05/09 00:04:02;;;;;;;10.68;8.25;;;;;;;;;;5071409;28;20052;-59
2023/05/09 00:06:31;;;;;;;12.55;9.25;;;;;;;;;;5072610;28;20037;-59
2023/05/09 00:08:58;;;;;;;14.48;8.82;;;;;;;;;;5071639;28;20127;-59
2023/05/09 00:11:25;;;;;;;12.30;8.50;;;;;;;;;;5072863;28;20549;-59
2023/05/09 00:13:53;;;;;;;11.13;8.25;;;;;;;;;;5072489;28;20063;-59
2023/05/09 00:16:22;;;;;;;13.70;8.48;;;;;;;;;;5072715;28;20075;-59
2023/05/09 00:18:51;;;;;;;14.20;8.55;;;;;;;;;;5072500;28;20040;-59
2023/05/09 00:21:19;;;;;;;10.95;7.65;;;;;;;;;;5072589;28;20099;-59
2023/05/09 00:23:47;;;;;;;12.75;8.52;;;;;;;;;;5071140;28;20102;-59
2023/05/09 00:26:15;;;;;;;11.95;7.88;;;;;;;;;;5072448;28;20068;-60
2023/05/09 00:28:43;;;;;;;15.60;8.98;;;;;;;;;;5087927;28;20071;-59
2023/05/09 00:31:10;;;;;;;12.55;8.13;;;;;;;;;;5088045;28;20097;-60
2023/05/09 00:33:38;;;;;;;11.55;7.85;;;;;;;;;;5072355;28;20051;-60
2023/05/09 00:36:06;;;;;;;12.10;8.02;;;;;;;;;;5054346;28;20049;-59
2023/05/09 00:38:33;;;;;;;12.32;7.78;;;;;;;;;;5088254;28;20437;-59
2023/05/09 00:41:01;;;;;;;13.95;7.30;;;;;;;;;;5072258;28;20041;-60
2023/05/09 00:43:28;;;;;;;8.93;6.47;;;;;;;;;;5087721;28;20044;-59
2023/05/09 00:45:56;;;;;;;11.27;7.35;;;;;;;;;;5087887;28;20131;-60
2023/05/09 00:48:23;;;;;;;10.25;7.03;;;;;;;;;;5087899;28;20055;-60
2023/05/09 00:50:51;;;;;;;10.23;7.03;;;;;;;;;;5087814;28;20272;-59
2023/05/09 00:53:20;;;;;;;11.05;7.18;;;;;;;;;;5071112;28;20044;-59
2023/05/09 00:55:48;;;;;;;10.50;7.00;;;;;;;;;;5072205;28;20032;-60
2023/05/09 00:58:18;;;;;;;10.68;6.97;;;;;;;;;;5072148;28;20102;-59
2023/05/09 01:00:46;;;;;;;18.05;7.47;;;;;;;;;;5087774;28;20587;-59
2023/05/09 01:03:14;;;;;;;11.40;6.28;;;;;;;;;;5087577;28;20044;-59
2023/05/09 01:06:02;;;;;;;9.05;7.15;;;;;;;;;;5087292;28;20053;-60
2023/05/09 01:09:06;;;;;;;9.90;6.55;;;;;;;;;;5070864;28;20139;-59
2023/05/09 01:11:41;;;;;;;10.68;6.80;;;;;;;;;;5029665;28;20125;-59
2023/05/09 01:14:11;;;;;;;9.80;6.38;;;;;;;;;;5079687;28;20490;-60
2023/05/09 01:16:43;;;;;;;9.82;6.05;;;;;;;;;;5072209;28;20045;-60
2023/05/09 01:19:14;;;;;;;10.15;6.43;;;;;;;;;;5087523;28;20140;-59
2023/05/09 01:21:44;;;;;;;9.13;6.13;;;;;;;;;;5091110;28;20049;-59
2023/05/09 01:24:38;;;;;;;10.52;6.55;;;;;;;;;;5091071;28;20041;-59
2023/05/09 01:27:15;;;;;;;9.68;5.85;;;;;;;;;;5072196;28;20123;-60
2023/05/09 01:29:45;;;;;;;7.78;5.60;;;;;;;;;;5091051;28;20510;-60
2023/05/09 01:32:14;;;;;;;8.02;6.05;;;;;;;;;;5074330;28;20048;-59
2023/05/09 01:34:43;;;;;;;8.80;5.35;;;;;;;;;;5091039;28;20041;-60
2023/05/09 01:37:12;;;;;;;10.48;5.82;;;;;;;;;;5091079;28;20037;-60
2023/05/09 01:39:41;;;;;;;11.82;6.28;;;;;;;;;;5074056;28;20052;-59
2023/05/09 01:42:11;;;;;;;10.90;6.10;;;;;;;;;;5091219;28;20482;-60
2023/05/09 01:44:40;;;;;;;7.97;5.57;;;;;;;;;;5073951;28;20045;-60
2023/05/09 01:47:09;;;;;;;9.30;5.75;;;;;;;;;;5090730;28;20044;-60
2023/05/09 01:49:37;;;;;;;9.50;5.53;;;;;;;;;;5075187;28;20079;-59
2023/05/09 01:52:07;;;;;;;8.80;5.70;;;;;;;;;;5090562;28;20052;-59
2023/05/09 01:54:35;;;;;;;7.50;5.30;;;;;;;;;;5090642;28;20506;-60
2023/05/09 01:57:03;;;;;;;7.90;5.82;;;;;;;;;;5074772;28;20094;-59
2023/05/09 01:59:33;;;;;;;9.55;6.00;;;;;;;;;;5090910;28;20451;-60
2023/05/09 02:02:02;;;;;;;10.27;5.43;;;;;;;;;;5090568;28;20437;-60
2023/05/09 02:04:30;;;;;;;9.27;5.38;;;;;;;;;;5090428;28;20117;-59
2023/05/09 02:06:58;;;;;;;9.27;5.65;;;;;;;;;;5090800;28;20040;-61
2023/05/09 02:09:25;;;;;;;8.70;5.95;;;;;;;;;;5090343;28;20059;-60
2023/05/09 02:11:54;;;;;;;7.95;6.00;;;;;;;;;;5090389;28;20090;-59
2023/05/09 02:14:21;;;;;;;8.77;5.80;;;;;;;;;;5090283;28;20461;-60
2023/05/09 02:16:49;;;;;;;7.57;5.20;;;;;;;;;;5073446;28;20487;-60
2023/05/09 02:19:16;;;;;;;8.23;5.68;;;;;;;;;;5090407;28;20118;-60
2023/05/09 02:21:44;;;;;;;7.55;5.40;;;;;;;;;;5090199;28;20037;-59
2023/05/09 02:24:11;;;;;;;8.13;4.82;;;;;;;;;;5074246;28;20045;-59
2023/05/09 02:26:40;;;;;;;10.63;5.90;;;;;;;;;;5090148;28;20446;-60
2023/05/09 02:29:08;;;;;;;7.90;5.35;;;;;;;;;;5073231;28;20040;-60
2023/05/09 02:31:36;;;;;;;7.20;5.30;;;;;;;;;;5088960;28;20040;-59
2023/05/09 02:34:04;;;;;;;7.70;4.88;;;;;;;;;;5090262;28;20055;-60
2023/05/09 02:36:34;;;;;;;9.20;4.57;;;;;;;;;;5089942;28;20449;-60
2023/05/09 02:39:01;;;;;;;7.05;4.68;;;;;;;;;;5089987;28;20521;-60
2023/05/09 02:41:29;;;;;;;11.93;5.47;;;;;;;;;;5089696;28;20106;-60
2023/05/09 02:43:57;;;;;;;7.10;4.95;;;;;;;;;;5089544;28;20067;-59
2023/05/09 02:46:24;;;;;;;6.97;5.22;;;;;;;;;;5074122;28;20389;-60
2023/05/09 02:48:52;;;;;;;8.52;5.20;;;;;;;;;;5074194;28;20043;-60
2023/05/09 02:51:20;;;;;;;7.13;5.10;;;;;;;;;;5073884;28;20033;-60
2023/05/09 02:53:47;;;;;;;9.35;5.38;;;;;;;;;;5072845;28;20048;-59
2023/05/09 02:56:15;;;;;;;7.97;4.90;;;;;;;;;;5089635;28;20376;-60
2023/05/09 02:58:49;;;;;;;7.72;5.20;;;;;;;;;;5089329;28;20132;-59
2023/05/09 03:01:17;;;;;;;11.10;5.68;;;;;;;;;;5089695;28;20056;-60
2023/05/09 03:03:45;;;;;;;9.60;5.13;;;;;;;;;;5091834;28;20676;-60
2023/05/09 03:06:14;;;;;;;9.82;5.45;;;;;;;;;;5075802;28;20071;-60
2023/05/09 03:08:41;;;;;;;8.98;5.15;;;;;;;;;;5075817;28;20058;-60
2023/05/09 03:11:09;;;;;;;8.98;5.65;;;;;;;;;;5092581;28;20049;-60
2023/05/09 03:13:37;;;;;;;10.25;4.85;;;;;;;;;;5092408;28;20036;-59
2023/05/09 03:16:05;;;;;;;8.45;4.72;;;;;;;;;;5094068;28;20056;-59
2023/05/09 03:18:32;;;;;;;8.57;4.80;;;;;;;;;;5075808;28;20047;-60
2023/05/09 03:21:01;;;;;;;6.97;4.53;;;;;;;;;;5075526;28;20524;-59
2023/05/09 03:23:29;;;;;;;8.90;5.10;;;;;;;;;;5092345;28;20059;-59
2023/05/09 03:25:56;;;;;;;6.82;4.72;;;;;;;;;;5075624;28;20397;-59
2023/05/09 03:28:24;;;;;;;8.07;5.00;;;;;;;;;;5093303;28;20032;-59
2023/05/09 03:30:51;;;;;;;9.07;4.38;;;;;;;;;;5093143;28;20043;-59
2023/05/09 03:33:22;;;;;;;8.27;5.10;;;;;;;;;;5092108;28;20047;-58
2023/05/09 03:35:50;;;;;;;5.63;4.07;;;;;;;;;;5075387;28;20047;-58
2023/05/09 03:38:18;;;;;;;6.28;4.15;;;;;;;;;;5075088;28;20123;-59
2023/05/09 03:40:45;;;;;;;6.97;4.43;;;;;;;;;;5091997;28;20494;-59
2023/05/09 03:43:13;;;;;;;7.38;4.68;;;;;;;;;;5091799;28;20043;-59
2023/05/09 03:45:40;;;;;;;6.55;4.00;;;;;;;;;;5091697;28;20126;-59
2023/05/09 03:48:10;;;;;;;6.15;4.05;;;;;;;;;;5091435;28;20126;-59
2023/05/09 03:50:43;;;;;;;8.32;4.85;;;;;;;;;;5074851;28;20076;-60
2023/05/09 03:53:14;;;;;;;6.30;4.70;;;;;;;;;;5074765;28;20093;-59
2023/05/09 03:55:43;;;;;;;5.70;4.03;;;;;;;;;;5074736;28;20055;-59
2023/05/09 03:58:13;;;;;;;6.05;4.43;;;;;;;;;;5074629;28;20507;-59
2023/05/09 04:00:42;;;;;;;7.25;5.10;;;;;;;;;;5074804;28;20089;-59
2023/05/09 04:03:15;;;;;;;6.35;4.60;;;;;;;;;;5091733;28;20036;-59
2023/05/09 04:05:46;;;;;;;6.40;4.32;;;;;;;;;;5074519;28;20113;-59
2023/05/09 04:08:24;;;;;;;7.43;4.47;;;;;;;;;;5074622;28;20036;-59
2023/05/09 04:10:52;;;;;;;7.20;4.22;;;;;;;;;;5074808;28;20131;-60
2023/05/09 04:13:20;;;;;;;8.63;4.07;;;;;;;;;;5074423;28;20059;-59
2023/05/09 04:15:48;;;;;;;6.45;4.07;;;;;;;;;;5091025;28;20098;-60
2023/05/09 04:18:15;;;;;;;6.70;4.05;;;;;;;;;;5073529;28;20074;-60
2023/05/09 04:20:44;;;;;;;5.28;4.18;;;;;;;;;;5073688;28;20095;-60
2023/05/09 04:23:11;;;;;;;6.57;4.50;;;;;;;;;;5073746;28;20040;-60
2023/05/09 04:25:39;;;;;;;6.90;4.60;;;;;;;;;;5074334;28;20047;-60
2023/05/09 04:28:07;;;;;;;7.20;4.47;;;;;;;;;;5074469;28;20048;-60
2023/05/09 04:30:36;;;;;;;6.57;4.82;;;;;;;;;;5074318;28;20386;-60
2023/05/09 04:33:04;;;;;;;9.07;4.97;;;;;;;;;;5091429;28;20389;-60
2023/05/09 04:35:32;;;;;;;6.45;4.75;;;;;;;;;;5073827;28;20056;-60
2023/05/09 04:38:00;;;;;;;6.10;4.35;;;;;;;;;;5092293;28;20062;-60
2023/05/09 04:40:27;;;;;;;8.93;4.80;;;;;;;;;;5091070;28;20048;-60
2023/05/09 04:42:58;;;;;;;6.80;4.50;;;;;;;;;;5074070;28;20044;-60
2023/05/09 04:45:28;;;;;;;5.50;4.55;;;;;;;;;;5074364;28;20155;-60
2023/05/09 04:47:58;;;;;;;7.53;4.88;;;;;;;;;;5074289;28;20134;-60
2023/05/09 04:50:25;;;;;;;6.97;4.20;;;;;;;;;;5074310;28;20071;-60
2023/05/09 04:52:52;;;;;;;8.25;4.20;;;;;;;;;;5074312;28;20139;-60
2023/05/09 04:55:20;;;;;;;5.72;4.18;;;;;;;;;;5092879;28;20044;-60
2023/05/09 04:57:49;;;;;;;7.15;3.92;;;;;;;;;;5096446;28;20040;-60
2023/05/09 05:00:18;;;;;;;6.18;4.30;;;;;;;;;;5078279;28;20040;-60
2023/05/09 05:02:47;;;;;;;7.07;4.07;;;;;;;;;;5078142;28;20075;-60
2023/05/09 05:05:15;;;;;;;6.72;4.00;;;;;;;;;;5077460;28;20093;-60
2023/05/09 05:07:43;;;;;;;5.50;4.30;;;;;;;;;;5078239;28;20105;-61
2023/05/09 05:10:15;;;;;;;7.22;4.30;;;;;;;;;;5078027;28;20048;-60
2023/05/09 05:12:47;;;;;;;6.30;4.40;;;;;;;;;;5077747;28;20132;-60
2023/05/09 05:15:18;;;;;;;7.30;4.68;;;;;;;;;;5063004;28;20045;-61
2023/05/09 05:17:46;;;;;;;5.60;3.63;;;;;;;;;;5058202;28;20098;-60
2023/05/09 05:20:17;;;;;;;5.30;4.00;;;;;;;;;;5057857;28;20044;-60
2023/05/09 05:22:45;;;;;;;6.80;4.47;;;;;;;;;;5057834;28;20045;-60
2023/05/09 05:25:15;;;;;;;7.40;4.25;;;;;;;;;;5074571;28;20078;-60
2023/05/09 05:27:45;;;;;;;6.35;3.70;;;;;;;;;;5057742;28;20040;-60
2023/05/09 05:30:14;;;;;;;7.72;4.38;;;;;;;;;;5057488;28;20072;-60
2023/05/09 05:32:42;;;;;;;7.72;4.40;;;;;;;;;;5074131;28;20544;-60
2023/05/09 05:35:12;;;;;;;6.35;4.13;;;;;;;;;;5057551;28;20056;-60
2023/05/09 05:37:41;;;;;;;8.15;4.75;;;;;;;;;;5057512;28;20059;-60
2023/05/09 05:40:09;;;;;;;7.15;3.90;;;;;;;;;;5057335;28;20123;-60
2023/05/09 05:42:39;;;;;;;5.35;4.00;;;;;;;;;;5073995;28;20053;-60
2023/05/09 05:45:07;;;;;;;5.50;3.42;;;;;;;;;;5057315;28;20052;-60
2023/05/09 05:47:39;;;;;;;6.57;4.63;;;;;;;;;;5057416;28;20032;-60
2023/05/09 05:50:10;;;;;;;5.53;4.30;;;;;;;;;;5075100;28;20040;-60
2023/05/09 05:52:38;;;;;;;5.05;3.40;;;;;;;;;;5090708;28;20502;-60
2023/05/09 05:55:07;;;;;;;5.20;4.10;;;;;;;;;;5057089;28;20048;-60
2023/05/09 05:57:36;;;;;;;5.05;3.55;;;;;;;;;;5056960;28;20067;-60
2023/05/09 06:00:10;;;;;;;6.40;4.40;;;;;;;;;;5056863;28;20048;-60
2023/05/09 06:02:44;;;;;;;7.82;4.43;;;;;;;;;;5056994;28;20131;-60
2023/05/09 06:05:19;;;;;;;7.50;4.30;;;;;;;;;;5056589;28;20518;-60
2023/05/09 06:07:47;;;;;;;6.15;3.65;;;;;;;;;;5090342;28;20083;-60
2023/05/09 06:10:17;;;;;;;7.80;3.85;;;;;;;;;;5074779;28;20620;-60
2023/05/09 06:12:45;;;;;;;7.85;4.07;;;;;;;;;;5056711;28;20044;-60
2023/05/09 06:15:12;;;;;;;8.30;3.72;;;;;;;;;;5056707;28;20140;-60
2023/05/09 06:17:44;;;;;;;5.75;3.65;;;;;;;;;;5056878;28;20047;-60
2023/05/09 06:20:12;;;;;;;7.93;4.10;;;;;;;;;;5056717;28;20086;-59
2023/05/09 06:22:39;;;;;;;6.55;3.63;;;;;;;;;;5056483;28;20436;-59
2023/05/09 06:25:07;;;;;;;5.88;3.72;;;;;;;;;;5056469;28;20048;-59
2023/05/09 06:27:37;;;;;;;10.45;4.30;;;;;;;;;;5056263;28;20509;-59
2023/05/09 06:30:05;;;;;;;7.68;4.90;;;;;;;;;;5056608;28;20047;-60
2023/05/09 06:32:51;;;;;;;7.20;4.13;;;;;;;;;;5074356;28;20041;-60
2023/05/09 06:35:18;;;;;;;6.40;4.22;;;;;;;;;;5082208;28;20044;-60
2023/05/09 06:37:46;;;;;;;6.70;3.92;;;;;;;;;;5084702;28;20067;-60
2023/05/09 06:40:15;;;;;;;6.85;4.28;;;;;;;;;;5059421;28;20048;-59
2023/05/09 06:42:43;;;;;;;6.53;3.83;;;;;;;;;;5074385;28;20041;-59
2023/05/09 06:45:10;;;;;;;6.28;3.65;;;;;;;;;;5073894;28;20037;-60
2023/05/09 06:47:38;;;;;;;8.43;4.40;;;;;;;;;;5089569;28;20037;-59
2023/05/09 06:50:06;;;;;;;6.15;4.00;;;;;;;;;;5056029;28;20449;-60
2023/05/09 06:52:34;;;;;;;5.88;4.03;;;;;;;;;;5073779;28;20045;-59
2023/05/09 06:55:02;;;;;;;6.93;3.80;;;;;;;;;;5073938;28;20048;-60
2023/05/09 06:57:30;;;;;;;6.03;3.97;;;;;;;;;;5073565;28;20037;-59
2023/05/09 06:59:57;;;;;;;7.13;3.97;;;;;;;;;;5073796;28;20086;-60
2023/05/09 07:02:24;;;;;;;5.85;3.88;;;;;;;;;;5073567;28;20043;-60
2023/05/09 07:04:52;;;;;;;6.85;4.90;;;;;;;;;;5073503;28;20091;-60
2023/05/09 07:07:19;;;;;;;7.35;4.18;;;;;;;;;;5073609;28;20048;-60
2023/05/09 07:09:47;;;;;;;9.15;4.90;;;;;;;;;;5073529;28;20149;-60
2023/05/09 07:12:19;;;;;;;7.97;4.07;;;;;;;;;;5073515;28;20479;-60
2023/05/09 07:14:46;;;;;;;7.95;4.22;;;;;;;;;;5073423;28;20058;-60
2023/05/09 07:17:14;;;;;;;7.63;4.32;;;;;;;;;;5073374;28;20052;-60
2023/05/09 07:19:50;;;;;;;6.07;4.30;;;;;;;;;;5088074;28;20110;-60
2023/05/09 07:22:18;;;;;;;5.93;4.20;;;;;;;;;;5073340;28;20091;-60
2023/05/09 07:24:45;;;;;;;7.88;4.55;;;;;;;;;;5073720;28;20277;-60
2023/05/09 07:27:13;;;;;;;6.88;4.70;;;;;;;;;;5073102;28;20072;-59
2023/05/09 07:29:41;;;;;;;5.32;4.03;;;;;;;;;;5073479;28;20048;-59
2023/05/09 07:32:08;;;;;;;6.78;4.75;;;;;;;;;;5073157;28;20044;-59
2023/05/09 07:34:37;;;;;;;6.57;4.22;;;;;;;;;;5072892;28;20491;-59
2023/05/09 07:37:04;;;;;;;9.95;5.60;;;;;;;;;;5073065;28;20032;-59
2023/05/09 07:39:32;;;;;;;12.60;4.65;;;;;;;;;;5073021;28;20098;-59
2023/05/09 07:41:59;;;;;;;7.25;4.10;;;;;;;;;;5073336;28;20041;-59
2023/05/09 07:44:27;;;;;;;5.85;4.18;;;;;;;;;;5054960;28;20459;-59
2023/05/09 07:46:54;;;;;;;9.77;4.07;;;;;;;;;;5073008;28;20047;-60
2023/05/09 07:49:21;;;;;;;10.52;4.43;;;;;;;;;;5073469;28;20044;-59
2023/05/09 07:51:49;;;;;;;5.88;4.20;;;;;;;;;;5072929;28;20449;-59
2023/05/09 07:54:16;;;;;;;5.05;4.07;;;;;;;;;;5072806;28;20068;-59
2023/05/09 07:56:44;;;;;;;6.80;4.03;;;;;;;;;;5072906;28;20055;-59
2023/05/09 07:59:11;;;;;;;5.50;4.20;;;;;;;;;;5054807;28;20041;-60
2023/05/09 08:01:39;;;;;;;5.53;4.00;;;;;;;;;;5072759;28;20039;-59
2023/05/09 08:04:07;;;;;;;5.32;4.10;;;;;;;;;;5054511;28;20079;-61
2023/05/09 08:06:36;;;;;;;4.68;4.18;;;;;;;;;;5088194;28;20551;-60
2023/05/09 08:09:03;;;;;;;9.73;4.97;;;;;;;;;;5072855;28;20068;-59
2023/05/09 08:11:34;;;;;;;5.30;4.38;;;;;;;;;;5055047;28;20041;-61
2023/05/09 08:14:02;;;;;;;6.07;4.72;;;;;;;;;;5072465;28;20041;-61
2023/05/09 08:16:29;;;;;;;6.55;4.05;;;;;;;;;;5072477;28;20490;-61
2023/05/09 08:18:57;;;;;;;5.20;3.70;;;;;;;;;;5072696;28;20044;-58
2023/05/09 08:21:25;;;;;;;6.65;3.92;;;;;;;;;;5072855;28;20041;-59
2023/05/09 08:23:52;;;;;;;6.63;3.72;;;;;;;;;;5072780;28;20517;-60
2023/05/09 08:26:21;;;;;;;6.25;4.07;;;;;;;;;;5072458;28;20115;-60
2023/05/09 08:28:49;;;;;;;8.52;3.80;;;;;;;;;;5072153;28;20123;-61
2023/05/09 08:31:16;;;;;;;5.57;3.78;;;;;;;;;;5071968;28;20076;-60
2023/05/09 08:33:44;;;;;;;6.32;4.03;;;;;;;;;;5072543;28;20048;-60
2023/05/09 08:36:11;;;;;;;6.75;4.10;;;;;;;;;;5072478;28;20094;-60
2023/05/09 08:38:39;;;;;;;4.57;3.80;;;;;;;;;;5072614;28;20058;-60
2023/05/09 08:41:07;;;;;;;4.93;3.58;;;;;;;;;;5072688;28;20068;-59
2023/05/09 08:43:34;;;;;;;6.00;3.40;;;;;;;;;;5054209;28;20071;-60
2023/05/09 08:46:07;;;;;;;6.22;3.53;;;;;;;;;;5072167;28;20083;-59
2023/05/09 08:48:38;;;;;;;5.85;3.58;;;;;;;;;;5072270;28;20043;-59
2023/05/09 08:51:06;;;;;;;6.38;3.60;;;;;;;;;;5072330;28;20052;-60
2023/05/09 08:53:34;;;;;;;7.40;4.80;;;;;;;;;;5072259;28;20056;-59
2023/05/09 08:56:05;;;;;;;4.22;3.72;;;;;;;;;;5072197;28;20032;-59
2023/05/09 08:58:33;;;;;;;8.52;4.93;;;;;;;;;;5072118;28;20430;-60
2023/05/09 09:01:03;;;;;;;5.28;3.50;;;;;;;;;;5072428;28;20041;-59
2023/05/09 09:03:31;;;;;;;5.90;3.65;;;;;;;;;;5072278;28;20052;-59
2023/05/09 09:05:58;;;;;;;8.15;4.25;;;;;;;;;;5071784;28;20135;-59
2023/05/09 09:08:26;;;;;;;6.07;3.50;;;;;;;;;;5054108;28;20040;-59
2023/05/09 09:10:54;;;;;;;5.22;3.40;;;;;;;;;;5071940;28;20044;-59
2023/05/09 09:13:22;;;;;;;5.75;3.67;;;;;;;;;;5072271;28;20158;-60
2023/05/09 09:15:51;;;;;;;4.35;3.65;;;;;;;;;;5072078;28;20115;-59
2023/05/09 09:18:22;;;;;;;5.03;3.60;;;;;;;;;;5071815;28;20154;-58
2023/05/09 09:21:09;;;;;;;8.60;3.88;;;;;;;;;;5071807;28;20494;-59
2023/05/09 09:23:39;;;;;;;9.95;4.85;;;;;;;;;;5071952;28;20069;-59
2023/05/09 09:26:06;;;;;;;5.50;3.92;;;;;;;;;;5071846;28;20127;-59
2023/05/09 09:28:34;;;;;;;6.03;4.10;;;;;;;;;;5071896;28;20470;-58
2023/05/09 09:31:01;;;;;;;6.95;3.90;;;;;;;;;;5071784;28;20037;-59
2023/05/09 09:33:29;;;;;;;5.63;4.00;;;;;;;;;;5072159;28;20036;-60
2023/05/09 09:35:58;;;;;;;5.68;4.20;;;;;;;;;;5071787;28;20037;-60
2023/05/09 09:38:25;;;;;;;6.95;3.78;;;;;;;;;;5087296;28;20047;-60
2023/05/09 09:40:54;;;;;;;8.25;3.90;;;;;;;;;;5072666;28;20585;-59
2023/05/09 09:43:28;;;;;;;8.55;5.40;;;;;;;;;;5058088;28;20106;-59
2023/05/09 09:45:56;;;;;;;9.88;4.70;;;;;;;;;;5075204;28;20075;-59
2023/05/09 09:48:25;;;;;;;5.53;3.90;;;;;;;;;;5075577;28;20045;-60
2023/05/09 09:50:56;;;;;;;9.63;3.92;;;;;;;;;;5075364;28;20033;-59
2023/05/09 09:53:29;;;;;;;5.25;3.50;;;;;;;;;;5075150;28;20490;-59
2023/05/09 09:55:57;;;;;;;5.65;3.53;;;;;;;;;;5075029;28;20044;-59
2023/05/09 09:58:24;;;;;;;5.88;3.67;;;;;;;;;;5075052;28;20049;-59
2023/05/09 10:01:05;;;;;;;9.02;3.90;;;;;;;;;;5090899;28;20095;-59
2023/05/09 10:03:40;;;;;;;6.55;4.20;;;;;;;;;;5074935;28;20048;-60
2023/05/09 10:06:10;;;;;;;4.43;3.60;;;;;;;;;;5074773;28;20048;-59
2023/05/09 10:08:37;;;;;;;5.00;3.33;;;;;;;;;;5075044;28;20041;-59
2023/05/09 10:11:06;;;;;;;11.15;4.15;;;;;;;;;;5090593;28;20045;-59
2023/05/09 10:13:37;;;;;;;6.38;4.28;;;;;;;;;;5074956;28;20063;-60
2023/05/09 10:16:05;;;;;;;6.20;3.92;;;;;;;;;;5090613;28;20075;-59
2023/05/09 10:18:34;;;;;;;5.20;3.42;;;;;;;;;;5074629;28;20072;-60
2023/05/09 10:21:03;;;;;;;6.30;3.53;;;;;;;;;;5074689;28;20053;-60
2023/05/09 10:23:34;;;;;;;7.25;3.70;;;;;;;;;;5074851;28;20055;-60
2023/05/09 10:26:08;;;;;;;5.82;4.40;;;;;;;;;;5074473;28;20054;-60
2023/05/09 10:28:38;;;;;;;10.65;4.00;;;;;;;;;;5074442;28;20048;-60
2023/05/09 10:31:14;;;;;;;7.20;4.13;;;;;;;;;;5074258;28;20046;-60
2023/05/09 10:33:46;;;;;;;8.68;3.60;;;;;;;;;;5074297;28;20552;-60
2023/05/09 10:36:16;;;;;;;4.38;3.38;;;;;;;;;;5074353;28;20041;-60
2023/05/09 10:38:44;;;;;;;4.25;3.08;;;;;;;;;;5074561;28;20525;-60
2023/05/09 10:41:12;;;;;;;5.40;4.10;;;;;;;;;;5074128;28;20036;-60
2023/05/09 10:43:40;;;;;;;4.97;3.40;;;;;;;;;;5074270;28;20057;-60
2023/05/09 10:46:07;;;;;;;4.88;3.47;;;;;;;;;;5074309;28;20438;-60
2023/05/09 10:48:36;;;;;;;6.47;3.55;;;;;;;;;;5074055;28;20139;-61
2023/05/09 10:51:07;;;;;;;7.03;3.53;;;;;;;;;;5073805;28;20051;-60
2023/05/09 10:53:44;;;;;;;5.70;3.65;;;;;;;;;;5071802;28;20055;-59
2023/05/09 10:56:31;;;;;;;4.60;3.10;;;;;;;;;;5073877;28;20068;-60
2023/05/09 10:58:59;;;;;;;3.45;2.80;;;;;;;;;;5074159;28;20052;-61
2023/05/09 11:01:37;;;;;;;3.97;3.00;;;;;;;;;;5073617;28;20186;-59
2023/05/09 11:04:09;;;;;;;4.75;3.65;;;;;;;;;;5073437;28;20131;-58
2023/05/09 11:06:50;;;;;;;4.20;2.95;;;;;;;;;;5073478;28;20068;-59
2023/05/09 11:09:26;;;;;;;4.55;3.30;;;;;;;;;;5073606;28;20032;-58
2023/05/09 11:11:56;;;;;;;7.88;3.70;;;;;;;;;;5073401;28;20503;-58
2023/05/09 11:14:33;;;;;;;3.90;3.03;;;;;;;;;;5073484;28;20041;-59
2023/05/09 11:17:08;;;;;;;5.22;3.08;;;;;;;;;;5073523;28;20075;-59
2023/05/09 11:19:58;;;;;;;4.75;3.30;;;;;;;;;;5073000;28;20058;-59
2023/05/09 11:22:26;;;;;;;7.72;3.47;;;;;;;;;;5073400;28;20082;-59
2023/05/09 11:25:00;;;;;;;9.52;3.60;;;;;;;;;;5073251;28;20049;-59
2023/05/09 11:27:28;;;;;;;5.70;3.55;;;;;;;;;;5073144;28;20076;-60
2023/05/09 11:29:57;;;;;;;4.82;3.55;;;;;;;;;;5055242;28;20033;-59
2023/05/09 11:32:30;;;;;;;6.55;3.47;;;;;;;;;;5073207;28;20045;-59
2023/05/09 11:35:06;;;;;;;4.90;3.45;;;;;;;;;;5073125;28;20119;-59
2023/05/09 11:37:38;;;;;;;7.70;3.80;;;;;;;;;;5073280;28;20127;-59
2023/05/09 11:40:07;;;;;;;6.13;3.25;;;;;;;;;;5073003;28;20483;-60
2023/05/09 11:42:34;;;;;;;6.20;3.10;;;;;;;;;;5072847;28;20089;-60
2023/05/09 11:45:03;;;;;;;5.78;3.17;;;;;;;;;;5072632;28;20123;-59
2023/05/09 11:47:31;;;;;;;5.82;3.30;;;;;;;;;;5072688;28;20066;-59
2023/05/09 11:49:58;;;;;;;7.15;4.75;;;;;;;;;;5072883;28;20044;-58
2023/05/09 11:52:26;;;;;;;6.38;3.58;;;;;;;;;;5072723;28;20429;-59
2023/05/09 11:54:54;;;;;;;6.72;3.10;;;;;;;;;;5072834;28;20111;-59
2023/05/09 11:57:21;;;;;;;6.40;3.25;;;;;;;;;;5073023;28;20071;-59
2023/05/09 11:59:48;;;;;;;8.18;4.47;;;;;;;;;;5072720;28;20034;-59
2023/05/09 12:02:16;;;;;;;3.53;3.08;;;;;;;;;;5073022;28;20380;-59
2023/05/09 12:04:44;;;;;;;3.70;3.33;;;;;;;;;;5072569;28;20056;-59
2023/05/09 12:07:12;;;;;;;5.72;4.28;;;;;;;;;;5072515;28;20057;-59
2023/05/09 12:09:39;;;;;;;4.03;3.10;;;;;;;;;;5072585;28;20098;-59
2023/05/09 12:12:10;;;;;;;5.25;3.15;;;;;;;;;;5072543;28;20494;-59
2023/05/09 12:14:38;;;;;;;6.15;3.30;;;;;;;;;;5072588;28;20032;-59
2023/05/09 12:17:06;;;;;;;5.50;3.40;;;;;;;;;;5054464;28;20491;-59
2023/05/09 12:19:34;;;;;;;3.83;2.83;;;;;;;;;;5072567;28;20064;-59
2023/05/09 12:22:02;;;;;;;4.38;2.78;;;;;;;;;;5054861;28;20371;-59
2023/05/09 12:24:30;;;;;;;4.53;3.50;;;;;;;;;;5072545;28;20045;-60
2023/05/09 12:26:58;;;;;;;3.35;2.83;;;;;;;;;;5072356;28;20040;-59
2023/05/09 12:29:26;;;;;;;3.20;2.72;;;;;;;;;;5072756;28;20028;-59
2023/05/09 12:31:54;;;;;;;6.10;3.10;;;;;;;;;;5072356;28;20045;-59
2023/05/09 12:34:22;;;;;;;3.72;3.08;;;;;;;;;;5071041;28;20047;-59
2023/05/09 12:36:50;;;;;;;8.00;3.00;;;;;;;;;;5072468;28;20091;-60
2023/05/09 12:39:20;;;;;;;5.32;2.90;;;;;;;;;;5072351;28;20044;-60
2023/05/09 12:41:48;;;;;;;4.43;2.80;;;;;;;;;;5072291;28;20036;-60
2023/05/09 12:44:28;;;;;;;4.22;2.50;;;;;;;;;;5054640;28;20437;-59
2023/05/09 12:46:57;;;;;;;4.72;2.90;;;;;;;;;;5072178;28;20076;-60
2023/05/09 12:49:25;;;;;;;5.90;2.95;;;;;;;;;;5087798;28;20089;-60
2023/05/09 12:51:54;;;;;;;5.10;3.30;;;;;;;;;;5072645;28;20548;-60
2023/05/09 12:54:25;;;;;;;6.30;4.53;;;;;;;;;;5072581;28;20098;-59
2023/05/09 12:56:57;;;;;;;5.97;2.88;;;;;;;;;;5072593;28;20040;-59
2023/05/09 12:59:29;;;;;;;6.03;2.95;;;;;;;;;;5072239;28;20052;-59
2023/05/09 13:01:57;;;;;;;4.63;3.15;;;;;;;;;;5072286;28;20491;-60
2023/05/09 13:04:26;;;;;;;5.43;3.20;;;;;;;;;;5071795;28;20063;-59
2023/05/09 13:06:56;;;;;;;8.35;3.08;;;;;;;;;;5072089;28;20044;-59
2023/05/09 13:09:24;;;;;;;4.80;3.45;;;;;;;;;;5072380;28;20063;-60
2023/05/09 13:11:52;;;;;;;5.97;3.28;;;;;;;;;;5087602;28;20128;-59
2023/05/09 13:14:21;;;;;;;6.15;3.30;;;;;;;;;;5072275;28;20123;-60
2023/05/09 13:16:48;;;;;;;6.40;3.20;;;;;;;;;;5074148;28;20483;-59
2023/05/09 13:19:16;;;;;;;6.93;3.00;;;;;;;;;;5075753;28;20037;-59
2023/05/09 13:21:43;;;;;;;6.00;3.63;;;;;;;;;;5075641;28;20144;-59
2023/05/09 13:24:11;;;;;;;5.68;3.60;;;;;;;;;;5075565;28;20040;-59
2023/05/09 13:26:38;;;;;;;6.45;3.28;;;;;;;;;;5075522;28;20494;-59
2023/05/09 13:29:06;;;;;;;7.15;3.50;;;;;;;;;;5061357;28;20075;-59
2023/05/09 13:31:34;;;;;;;8.18;3.42;;;;;;;;;;5095303;28;20532;-59
2023/05/09 13:34:01;;;;;;;4.88;3.83;;;;;;;;;;5082001;28;20037;-59
2023/05/09 13:36:29;;;;;;;5.93;3.70;;;;;;;;;;5094430;28;20047;-59
2023/05/09 13:38:56;;;;;;;9.48;4.10;;;;;;;;;;5080839;28;20552;-59
2023/05/09 13:41:24;;;;;;;6.20;4.22;;;;;;;;;;5095292;28;20126;-59
2023/05/09 13:43:52;;;;;;;5.53;3.40;;;;;;;;;;5094876;28;20093;-59
2023/05/09 13:46:20;;;;;;;5.60;3.20;;;;;;;;;;5085889;28;20090;-60
2023/05/09 13:48:47;;;;;;;3.40;2.90;;;;;;;;;;5092168;28;20048;-57
2023/05/09 13:51:15;;;;;;;5.18;3.28;;;;;;;;;;5095177;28;20478;-58
2023/05/09 13:53:42;;;;;;;3.95;3.03;;;;;;;;;;5094889;28;20044;-58
2023/05/09 13:56:09;;;;;;;4.43;2.97;;;;;;;;;;5094764;28;20046;-58
2023/05/09 13:58:37;;;;;;;5.40;3.10;;;;;;;;;;5094884;28;20434;-60
2023/05/09 14:01:05;;;;;;;6.72;3.55;;;;;;;;;;5088586;28;20509;-59
2023/05/09 14:03:32;;;;;;;8.02;3.45;;;;;;;;;;5057270;28;20037;-59
2023/05/09 14:06:00;;;;;;;7.13;3.70;;;;;;;;;;5090499;28;20055;-59
2023/05/09 14:08:28;;;;;;;7.75;3.60;;;;;;;;;;5094621;28;20044;-59
2023/05/09 14:10:55;;;;;;;3.70;3.20;;;;;;;;;;5084454;28;20051;-59
2023/05/09 14:13:23;;;;;;;6.95;3.63;;;;;;;;;;5073083;28;20071;-60
2023/05/09 14:15:51;;;;;;;5.97;3.80;;;;;;;;;;5073690;28;20085;-60
2023/05/09 14:18:19;;;;;;;6.25;3.60;;;;;;;;;;5080879;28;20044;-60
2023/05/09 14:20:47;;;;;;;4.93;3.50;;;;;;;;;;5082194;28;20048;-60
2023/05/09 14:23:15;;;;;;;5.75;2.88;;;;;;;;;;5081076;28;20032;-60
2023/05/09 14:25:43;;;;;;;5.72;2.92;;;;;;;;;;5081097;28;20033;-60
2023/05/09 14:28:11;;;;;;;4.97;2.95;;;;;;;;;;5083282;28;20490;-60
2023/05/09 14:30:38;;;;;;;5.82;3.50;;;;;;;;;;5088545;28;20482;-60
2023/05/09 14:33:06;;;;;;;5.15;3.30;;;;;;;;;;5073165;28;20040;-60
2023/05/09 14:35:33;;;;;;;9.13;4.18;;;;;;;;;;5073724;28;20083;-60
2023/05/09 14:38:01;;;;;;;6.60;3.83;;;;;;;;;;5072451;28;20043;-60
2023/05/09 14:40:30;;;;;;;8.65;4.45;;;;;;;;;;5074926;28;20474;-60
2023/05/09 14:43:01;;;;;;;7.00;4.22;;;;;;;;;;5093819;28;20549;-60
2023/05/09 14:45:29;;;;;;;6.65;4.50;;;;;;;;;;5093648;28;20486;-60
2023/05/09 14:47:57;;;;;;;7.25;4.30;;;;;;;;;;5094039;28;20047;-60
2023/05/09 14:50:24;;;;;;;6.20;4.20;;;;;;;;;;5093587;28;20131;-59
2023/05/09 14:52:52;;;;;;;4.90;3.53;;;;;;;;;;5094082;28;20486;-59